Aérodrome :
LOGIN :

S'inscrire | Disclaimer

   EN    FR    IT 

 










Légende :    VFR   VFR Marginal   IFR   IFR Intensif   IFR Très Intensif
Visi : 
Plafond : 
>= 8 km
>= 3000ft
5 à 8 km
1000 à 3000 ft
1500m à 5 km
500 à 1000 ft
800 à 1500m
200 à 500 ft
< 800m
< 200 ft
Symboles :   Orages  Brouillard  Fortes neiges  Fortes précipitations  Vent > 20 kt
SIGMETs :   Divers  Orages  Givrage  Turbulence  Onde Orograph.  Cendres Volcan.







- Altitude de l'aérodrome : 1470 ft
- Code IATA : KLU


LOWK - Klagenfurt

DERNIER METAR :
  • 251550Z 06011KT 9999 FEW012 SCT040 BKN055 10/M01 Q1012 R10L/29//95 NOSIG

METARs EXPIRÉS :
  • 251520Z 04007KT 9999 FEW012 SCT043 BKN055 11/04 Q1011 R10L/29//95 NOSIG
  • 251450Z 09005KT 060V140 9999 -SHRA FEW030 BKN050 11/06 Q1010 R10L/29//95 NOSIG
  • 251420Z 10005KT 060V140 9999 -SHRA FEW040 BKN055 FEW055CB 11/07 Q1010 R10L/29//95 NOSIG
  • 251350Z 03006KT 360V060 9999 -RA FEW020 BKN045 FEW050TCU 12/04 Q1010 R10L/29//95 TEMPO SHRA
  • 251320Z 04009KT 9999 -SHRA VCTS FEW020 BKN055 FEW060CB 12/06 Q1010 RETSRA R10L/29//95 TEMPO SHRA
  • 251250Z 35013KT 9999 SHRA SCT050 FEW050CB BKN065 14/04 Q1009 TEMPO TSRA

TAF AMD TAF LOWK
Valide du 25 à 12h jusqu'au 26 à 12h UTC


251234Z 2512/2612 VRB02KT 9999 SCT060 TX15/2512Z TN03/2605Z
TEMPO 2512/2520 09006KT SHRA SCT040 FEW040TCU BKN070
PROB40
TEMPO 2512/2517 35010G20KT TSRA BKN040 FEW040CB
TEMPO 2609/2612 02010G25KT
Pas de NOTAMs connus pour ce terrain.



MET'MAP, la Météo Aéronautique d'un coup d'oeil ! - Copyright ORBIFLY Décembre 2007 - Disclaimer

ORBIFLY MET'MAP TEAM :

Programmation & Développement : Alexandra Zaïnal
Conception & Développement : Baudouin d'Aumeries
Co-Programmation & Développement : Marc-Olivier Méhu
Soutien technique & logistique : Manuel Goepfert

Contact : metmap@orbifly.com




SOURCES & CREDITS :

   NOAA